createdAt,value
2018-02-08T00:00:21.179Z,21.87
2018-02-08T00:02:48.658Z,23.80
2018-02-08T00:05:16.126Z,24.03
2018-02-08T00:07:43.589Z,25.07
2018-02-08T00:10:11.041Z,24.20
2018-02-08T00:12:38.484Z,22.30
2018-02-08T00:15:05.957Z,22.00
2018-02-08T00:17:33.425Z,23.53
2018-02-08T00:20:01.743Z,22.23
2018-02-08T00:22:41.004Z,23.13
2018-02-08T00:25:08.499Z,23.80
2018-02-08T00:27:36.719Z,25.27
2018-02-08T00:30:04.176Z,24.27
2018-02-08T00:32:31.719Z,25.63
2018-02-08T00:34:59.190Z,25.27
2018-02-08T00:37:26.674Z,24.17
2018-02-08T00:39:54.150Z,25.63
2018-02-08T00:42:21.645Z,27.27
2018-02-08T00:44:49.871Z,27.93
2018-02-08T00:47:17.331Z,24.80
2018-02-08T00:49:44.778Z,25.40
2018-02-08T00:52:13.008Z,25.37
2018-02-08T00:54:41.263Z,26.67
2018-02-08T00:57:08.708Z,24.13
2018-02-08T00:59:36.181Z,27.07
2018-02-08T01:02:03.659Z,25.80
2018-02-08T01:04:31.879Z,26.37
2018-02-08T01:06:59.348Z,25.97
2018-02-08T01:09:26.826Z,25.97
2018-02-08T01:11:54.405Z,26.20
2018-02-08T01:14:21.852Z,25.10
2018-02-08T01:16:49.308Z,26.80
2018-02-08T01:19:16.820Z,29.83
2018-02-08T01:21:44.426Z,28.03
2018-02-08T01:24:11.867Z,28.20
2018-02-08T01:26:39.348Z,27.50
2018-02-08T01:29:06.879Z,26.63
2018-02-08T01:31:34.450Z,26.90
2018-02-08T01:34:01.895Z,27.87
2018-02-08T01:36:29.394Z,28.37
2018-02-08T01:38:58.051Z,27.10
2018-02-08T01:41:25.506Z,26.63
2018-02-08T01:43:52.979Z,27.47
2018-02-08T01:46:20.455Z,26.23
2018-02-08T01:48:48.679Z,26.37
2018-02-08T01:51:16.149Z,24.80
2018-02-08T01:53:43.637Z,26.90
2018-02-08T01:56:11.865Z,26.30
2018-02-08T01:58:39.356Z,26.70
2018-02-08T02:01:06.811Z,27.40
2018-02-08T02:03:34.287Z,26.60
2018-02-08T02:06:01.727Z,27.63
2018-02-08T02:08:29.197Z,25.83
2018-02-08T02:10:56.654Z,28.30
2018-02-08T02:13:24.103Z,26.93
2018-02-08T02:15:51.576Z,26.43
2018-02-08T02:18:19.046Z,26.80
2018-02-08T02:20:47.305Z,27.60
2018-02-08T02:23:14.762Z,28.43
2018-02-08T02:25:42.217Z,26.70
2018-02-08T02:28:09.684Z,26.30
2018-02-08T02:30:37.218Z,27.07
2018-02-08T02:33:04.703Z,27.33
2018-02-08T02:35:32.253Z,26.40
2018-02-08T02:37:59.719Z,27.00
2018-02-08T02:40:27.988Z,26.77
2018-02-08T02:42:55.435Z,27.37
2018-02-08T02:45:22.928Z,27.13
2018-02-08T02:47:51.199Z,28.10
2018-02-08T02:50:18.657Z,27.53
2018-02-08T02:52:46.117Z,27.07
2018-02-08T02:55:14.358Z,27.23
2018-02-08T02:57:41.807Z,28.53
2018-02-08T03:00:10.040Z,28.27
2018-02-08T03:02:38.285Z,27.07
2018-02-08T03:05:05.747Z,28.03
2018-02-08T03:07:33.219Z,26.83
2018-02-08T03:10:01.435Z,27.80
2018-02-08T03:12:28.907Z,28.30
2018-02-08T03:14:56.394Z,27.23
2018-02-08T03:17:23.853Z,25.80
2018-02-08T03:19:51.313Z,26.80
2018-02-08T03:22:18.766Z,29.30
2018-02-08T03:24:46.210Z,27.50
2018-02-08T03:27:13.684Z,30.23
2018-02-08T03:29:41.127Z,28.40
2018-02-08T03:32:08.627Z,27.40
2018-02-08T03:34:36.858Z,26.83
2018-02-08T03:37:04.324Z,26.83
2018-02-08T03:39:31.807Z,26.23
2018-02-08T03:41:59.314Z,26.67
2018-02-08T03:44:26.750Z,27.07
2018-02-08T03:46:54.230Z,27.10
2018-02-08T03:49:21.686Z,27.70
2018-02-08T03:51:49.156Z,28.00
2018-02-08T03:54:16.609Z,27.03
2018-02-08T03:56:44.074Z,26.90
2018-02-08T03:59:11.555Z,28.47
2018-02-08T04:01:39.015Z,27.20
2018-02-08T04:04:06.487Z,26.17
2018-02-08T04:06:34.002Z,26.40
2018-02-08T04:09:01.483Z,27.17
2018-02-08T04:11:28.939Z,28.63
2018-02-08T04:13:56.418Z,26.77
2018-02-08T04:16:23.867Z,27.97
2018-02-08T04:18:51.341Z,28.80
2018-02-08T04:21:18.788Z,27.43
2018-02-08T04:23:46.816Z,25.47
2018-02-08T04:26:14.280Z,26.43
2018-02-08T04:28:41.735Z,25.27
2018-02-08T04:31:09.191Z,27.07
2018-02-08T04:33:36.666Z,26.77
2018-02-08T04:36:04.119Z,27.80
2018-02-08T04:38:43.370Z,29.00
2018-02-08T04:41:22.520Z,27.80
2018-02-08T04:43:59.794Z,25.93
2018-02-08T04:46:39.063Z,26.40
2018-02-08T04:49:07.307Z,26.90
2018-02-08T04:51:34.773Z,27.47
2018-02-08T04:54:02.287Z,26.90
2018-02-08T04:56:29.758Z,27.03
2018-02-08T04:58:57.209Z,26.97
2018-02-08T05:01:24.674Z,26.83
2018-02-08T05:03:52.171Z,27.30
2018-02-08T05:06:19.630Z,29.17
2018-02-08T05:08:47.690Z,28.83
2018-02-08T05:11:15.167Z,31.23
2018-02-08T05:13:42.614Z,29.80
2018-02-08T05:16:10.075Z,29.37
2018-02-08T05:18:37.534Z,29.47
2018-02-08T05:21:05.003Z,27.90
2018-02-08T05:23:33.267Z,27.50
2018-02-08T05:26:00.727Z,28.43
2018-02-08T05:28:28.183Z,27.90
2018-02-08T05:30:55.646Z,29.37
2018-02-08T05:33:23.107Z,30.87
2018-02-08T05:35:50.567Z,28.27
2018-02-08T05:38:18.038Z,28.80
2018-02-08T05:40:45.551Z,27.77
2018-02-08T05:43:12.987Z,26.93
2018-02-08T05:45:40.455Z,27.37
2018-02-08T05:48:07.910Z,29.20
2018-02-08T05:50:35.386Z,28.30
2018-02-08T05:53:02.843Z,30.87
2018-02-08T05:55:30.324Z,28.30
2018-02-08T05:57:57.803Z,28.10
2018-02-08T06:00:26.044Z,26.50
2018-02-08T06:02:53.535Z,27.20
2018-02-08T06:05:20.988Z,28.00
2018-02-08T06:07:48.439Z,29.10
2018-02-08T06:10:15.918Z,27.97
2018-02-08T06:12:44.166Z,27.30
2018-02-08T06:15:11.638Z,26.93
2018-02-08T06:17:39.116Z,27.00
2018-02-08T06:20:07.337Z,27.80
2018-02-08T06:22:34.825Z,27.97
2018-02-08T06:25:02.385Z,27.93
2018-02-08T06:27:29.827Z,27.00
2018-02-08T06:29:57.302Z,28.33
2018-02-08T06:32:24.762Z,28.53
2018-02-08T06:34:52.220Z,28.97
2018-02-08T06:37:19.678Z,29.03
2018-02-08T06:39:47.951Z,29.60
2018-02-08T06:42:15.408Z,29.13
2018-02-08T06:44:42.865Z,28.33
2018-02-08T06:47:10.312Z,30.70
2018-02-08T06:49:37.784Z,28.87
2018-02-08T06:52:06.011Z,29.20
2018-02-08T06:54:33.491Z,27.43
2018-02-08T06:57:00.940Z,28.33
2018-02-08T06:59:28.411Z,27.57
2018-02-08T07:01:55.862Z,30.60
2018-02-08T07:04:23.342Z,32.20
2018-02-08T07:06:50.807Z,30.10
2018-02-08T07:09:18.286Z,29.80
2018-02-08T07:11:46.615Z,29.00
2018-02-08T07:14:14.073Z,30.00
2018-02-08T07:16:41.593Z,31.00
2018-02-08T07:19:09.009Z,29.97
2018-02-08T07:21:36.474Z,31.80
2018-02-08T07:24:03.953Z,31.20
2018-02-08T07:26:32.199Z,32.30
2018-02-08T07:28:59.656Z,31.13
2018-02-08T07:31:27.154Z,29.73
2018-02-08T07:33:55.383Z,28.57
2018-02-08T07:36:22.862Z,29.57
2018-02-08T07:38:50.331Z,30.87
2018-02-08T07:41:17.780Z,34.83
2018-02-08T07:43:45.645Z,31.03
2018-02-08T07:46:13.085Z,30.50
2018-02-08T07:48:40.550Z,30.77
2018-02-08T07:51:08.019Z,30.30
2018-02-08T07:53:35.506Z,31.50
2018-02-08T07:56:02.968Z,31.33
2018-02-08T07:58:30.451Z,30.37
2018-02-08T08:00:57.932Z,30.57
2018-02-08T08:03:25.410Z,28.70
2018-02-08T08:05:54.374Z,30.53
2018-02-08T08:08:21.865Z,28.77
2018-02-08T08:10:49.326Z,29.30
2018-02-08T08:13:16.767Z,29.07
2018-02-08T08:15:44.237Z,31.73
2018-02-08T08:18:11.687Z,30.20
2018-02-08T08:20:39.157Z,29.40
2018-02-08T08:23:06.616Z,36.40
2018-02-08T08:25:34.093Z,31.27
2018-02-08T08:28:02.315Z,29.17
2018-02-08T08:30:29.806Z,30.23
2018-02-08T08:32:57.353Z,32.17
2018-02-08T08:35:24.836Z,30.77
2018-02-08T08:37:53.065Z,31.47
2018-02-08T08:40:20.547Z,30.77
2018-02-08T08:42:48.020Z,32.33
2018-02-08T08:45:15.471Z,31.47
2018-02-08T08:47:42.935Z,30.23
2018-02-08T08:50:10.402Z,31.20
2018-02-08T08:52:38.653Z,29.93
2018-02-08T08:55:06.131Z,29.77
2018-02-08T08:57:33.590Z,30.10
2018-02-08T09:00:01.052Z,29.50
2018-02-08T09:02:28.514Z,29.07
2018-02-08T09:04:56.795Z,29.00
2018-02-08T09:07:25.036Z,30.13
2018-02-08T09:09:52.515Z,30.87
2018-02-08T09:12:19.993Z,29.53
2018-02-08T09:14:48.250Z,28.87
2018-02-08T09:17:15.732Z,29.23
2018-02-08T09:19:43.998Z,28.27
2018-02-08T09:22:12.236Z,28.50
2018-02-08T09:24:39.679Z,29.80
2018-02-08T09:27:07.158Z,30.13
2018-02-08T09:29:34.646Z,30.40
2018-02-08T09:32:02.880Z,30.40
2018-02-08T09:34:30.348Z,32.53
2018-02-08T09:36:57.802Z,31.00
2018-02-08T09:39:25.284Z,32.30
2018-02-08T09:41:52.744Z,33.07
2018-02-08T09:44:20.217Z,32.53
2018-02-08T09:46:48.447Z,32.27
2018-02-08T09:49:15.927Z,33.17
2018-02-08T09:51:43.402Z,33.60
2018-02-08T09:54:10.942Z,28.50
2018-02-08T09:56:38.449Z,32.53
2018-02-08T09:59:05.913Z,28.30
2018-02-08T10:01:33.395Z,30.33
2018-02-08T10:04:00.863Z,30.93
2018-02-08T10:06:28.355Z,29.23
2018-02-08T10:08:56.655Z,27.80
2018-02-08T10:11:24.879Z,26.80
2018-02-08T10:13:52.352Z,27.60
2018-02-08T10:16:19.912Z,26.80
2018-02-08T10:18:47.588Z,28.23
2018-02-08T10:21:15.104Z,27.33
2018-02-08T10:23:42.603Z,30.30
2018-02-08T10:26:10.071Z,27.20
2018-02-08T10:28:38.310Z,26.60
2018-02-08T10:31:05.795Z,25.93
2018-02-08T10:33:33.247Z,28.50
2018-02-08T10:36:00.817Z,25.07
2018-02-08T10:38:28.244Z,25.87
2018-02-08T10:40:55.727Z,24.93
2018-02-08T10:43:23.205Z,25.63
2018-02-08T10:45:51.496Z,25.70
2018-02-08T10:48:18.979Z,26.50
2018-02-08T10:50:46.482Z,28.50
2018-02-08T10:53:14.020Z,30.87
2018-02-08T10:55:41.476Z,28.40
2018-02-08T10:58:08.948Z,29.80
2018-02-08T11:00:36.447Z,29.40
2018-02-08T11:03:03.935Z,31.83
2018-02-08T11:05:31.411Z,31.33
2018-02-08T11:07:58.882Z,31.77
2018-02-08T11:10:26.355Z,32.17
2018-02-08T11:12:53.797Z,30.90
2018-02-08T11:15:21.283Z,33.57
2018-02-08T11:17:49.507Z,35.57
2018-02-08T11:20:17.005Z,36.23
2018-02-08T11:22:46.219Z,35.73
2018-02-08T11:25:14.443Z,32.40
2018-02-08T11:27:41.888Z,32.80
2018-02-08T11:30:09.415Z,33.40
2018-02-08T11:32:37.634Z,33.73
2018-02-08T11:35:05.103Z,31.93
2018-02-08T11:37:32.583Z,37.30
2018-02-08T11:40:00.074Z,31.13
2018-02-08T11:42:28.332Z,32.10
2018-02-08T11:44:55.792Z,30.00
2018-02-08T11:47:23.266Z,30.97
2018-02-08T11:49:51.478Z,30.93
2018-02-08T11:52:18.927Z,31.00
2018-02-08T11:54:46.386Z,29.20
2018-02-08T11:57:13.950Z,31.70
2018-02-08T11:59:41.619Z,28.33
2018-02-08T12:02:09.069Z,27.77
2018-02-08T12:04:36.544Z,29.03
2018-02-08T12:07:04.055Z,31.60
2018-02-08T12:09:32.286Z,29.63
2018-02-08T12:11:59.774Z,27.07
2018-02-08T12:14:28.008Z,27.17
2018-02-08T12:16:55.527Z,26.87
2018-02-08T12:19:23.743Z,27.57
2018-02-08T12:21:51.185Z,28.73
2018-02-08T12:24:18.646Z,27.47
2018-02-08T12:26:46.157Z,28.73
2018-02-08T12:29:13.615Z,27.63
2018-02-08T12:31:41.084Z,26.17
2018-02-08T12:34:09.320Z,25.70
2018-02-08T12:36:36.807Z,23.50
2018-02-08T12:39:04.251Z,25.90
2018-02-08T12:41:31.722Z,24.10
2018-02-08T12:43:59.167Z,24.47
2018-02-08T12:46:26.651Z,23.73
2018-02-08T12:48:54.100Z,24.13
2018-02-08T12:51:21.568Z,25.23
2018-02-08T12:53:49.782Z,26.73
2018-02-08T12:56:17.381Z,27.23
2018-02-08T12:58:44.860Z,24.07
2018-02-08T13:01:13.087Z,23.80
2018-02-08T13:03:40.583Z,27.07
2018-02-08T13:06:08.027Z,26.80
2018-02-08T13:08:35.496Z,24.67
2018-02-08T13:11:02.947Z,24.17
2018-02-08T13:13:30.403Z,23.63
2018-02-08T13:15:57.899Z,22.53
2018-02-08T13:18:26.147Z,21.60
2018-02-08T13:20:53.596Z,20.57
2018-02-08T13:23:21.084Z,20.77
2018-02-08T13:25:49.306Z,20.90
2018-02-08T13:28:16.764Z,20.43
2018-02-08T13:30:44.227Z,20.37
2018-02-08T13:33:11.703Z,19.10
2018-02-08T13:35:39.152Z,21.17
2018-02-08T13:38:06.619Z,22.13
2018-02-08T13:40:40.571Z,21.30
2018-02-08T13:43:09.702Z,22.70
2018-02-08T13:45:37.155Z,21.50
2018-02-08T13:48:19.513Z,23.97
2018-02-08T13:50:56.903Z,23.80
2018-02-08T13:53:41.048Z,25.33
2018-02-08T13:56:25.275Z,23.03
2018-02-08T13:58:58.287Z,23.37
2018-02-08T14:01:28.866Z,24.17
2018-02-08T14:03:56.310Z,24.27
2018-02-08T14:06:23.866Z,25.97
2018-02-08T14:08:52.071Z,25.13
2018-02-08T14:11:19.571Z,25.10
2018-02-08T14:13:47.044Z,25.10
2018-02-08T14:16:14.547Z,24.30
2018-02-08T14:18:42.020Z,24.73
2018-02-08T14:21:09.577Z,25.70
2018-02-08T14:23:37.043Z,25.03
2018-02-08T14:26:04.521Z,26.47
2018-02-08T14:28:31.979Z,26.10
2018-02-08T14:31:00.218Z,26.10
2018-02-08T14:33:27.699Z,27.97
2018-02-08T14:35:55.208Z,28.60
2018-02-08T14:38:23.501Z,27.03
2018-02-08T14:40:51.742Z,26.80
2018-02-08T14:43:19.975Z,26.57
2018-02-08T14:45:47.458Z,26.07
2018-02-08T14:48:14.934Z,26.77
2018-02-08T14:50:43.172Z,25.53
2018-02-08T14:53:10.659Z,27.00
2018-02-08T14:55:38.141Z,25.70
2018-02-08T14:58:06.379Z,25.50
2018-02-08T15:00:33.878Z,22.10
2018-02-08T15:03:02.181Z,22.27
2018-02-08T15:05:29.658Z,21.40
2018-02-08T15:07:57.115Z,21.70
2018-02-08T15:10:24.590Z,22.83
2018-02-08T15:12:52.082Z,21.13
2018-02-08T15:15:20.344Z,21.50
2018-02-08T15:17:47.783Z,21.80
2018-02-08T15:21:30.952Z,25.77
2018-02-08T15:23:59.319Z,24.83
2018-02-08T15:33:12.255Z,21.17
2018-02-08T15:35:39.792Z,20.87
2018-02-08T15:38:07.267Z,20.77
2018-02-08T15:40:34.833Z,20.50
2018-02-08T15:43:02.340Z,20.37
2018-02-08T15:45:30.612Z,20.30
2018-02-08T15:47:58.920Z,20.60
2018-02-08T15:50:26.413Z,22.57
2018-02-08T15:52:53.950Z,23.00
2018-02-08T15:55:21.395Z,21.80
2018-02-08T15:57:48.863Z,23.73
2018-02-08T16:00:16.365Z,21.33
2018-02-08T16:02:44.083Z,21.93
2018-02-08T16:05:11.551Z,22.20
2018-02-08T16:07:39.132Z,20.50
2018-02-08T16:10:06.580Z,22.87
2018-02-08T16:12:34.112Z,23.53
2018-02-08T16:15:01.587Z,21.20
2018-02-08T16:17:29.079Z,22.13
2018-02-08T16:19:56.568Z,21.30
2018-02-08T16:22:24.226Z,22.40
2018-02-08T16:24:52.680Z,21.80
2018-02-08T16:27:20.229Z,21.33
2018-02-08T16:29:47.689Z,22.30
2018-02-08T16:32:15.211Z,22.20
2018-02-08T16:34:42.877Z,23.10
2018-02-08T16:37:10.378Z,22.93
2018-02-08T16:39:38.718Z,23.17
2018-02-08T16:42:06.201Z,22.50
2018-02-08T16:44:33.681Z,24.40
2018-02-08T16:47:01.193Z,23.73
2018-02-08T16:49:28.695Z,24.40
2018-02-08T16:51:56.312Z,23.67
2018-02-08T16:54:23.920Z,24.17
2018-02-08T16:56:51.402Z,24.43
2018-02-08T16:59:18.856Z,23.93
2018-02-08T17:01:47.182Z,24.27
2018-02-08T17:04:14.642Z,24.90
2018-02-08T17:06:42.118Z,26.57
2018-02-08T17:09:09.607Z,25.30
2018-02-08T17:11:37.853Z,25.40
2018-02-08T17:14:05.387Z,24.80
2018-02-08T17:16:32.875Z,24.83
2018-02-08T17:19:00.436Z,24.77
2018-02-08T17:21:27.903Z,25.53
2018-02-08T17:23:55.386Z,25.80
2018-02-08T17:26:23.629Z,25.40
2018-02-08T17:28:51.107Z,26.87
2018-02-08T17:31:20.115Z,25.77
2018-02-08T17:33:48.422Z,28.33
2018-02-08T17:36:15.884Z,27.03
2018-02-08T17:38:43.343Z,29.87
2018-02-08T17:41:10.807Z,28.03
2018-02-08T17:43:38.310Z,28.67
2018-02-08T17:46:05.808Z,28.33
2018-02-08T17:48:33.494Z,26.90
2018-02-08T17:51:00.994Z,27.13
2018-02-08T17:53:28.600Z,27.33
2018-02-08T17:55:56.155Z,27.57
2018-02-08T17:58:23.625Z,28.17
2018-02-08T18:00:51.123Z,27.17
2018-02-08T18:03:18.575Z,27.80
2018-02-08T18:05:46.135Z,28.87
2018-02-08T18:08:13.599Z,26.77
2018-02-08T18:10:41.135Z,27.77
2018-02-08T18:13:08.616Z,28.13
2018-02-08T18:15:36.083Z,27.00
2018-02-08T18:18:04.507Z,28.10
2018-02-08T18:20:31.962Z,26.30
2018-02-08T18:22:59.556Z,26.00
2018-02-08T18:25:27.033Z,27.27
2018-02-08T18:27:54.540Z,26.87
2018-02-08T18:30:22.043Z,27.90
2018-02-08T18:32:49.607Z,28.73
2018-02-08T18:35:17.079Z,27.80
2018-02-08T18:37:45.556Z,28.40
2018-02-08T18:40:13.950Z,30.13
2018-02-08T18:42:41.536Z,28.00
2018-02-08T18:45:08.967Z,30.47
2018-02-08T18:47:37.345Z,29.60
2018-02-08T18:50:04.846Z,30.87
2018-02-08T18:52:32.398Z,30.40
2018-02-08T18:54:59.852Z,30.37
2018-02-08T18:57:27.366Z,30.27
2018-02-08T18:59:54.835Z,30.40
2018-02-08T19:02:23.113Z,29.10
2018-02-08T19:04:51.346Z,29.53
2018-02-08T19:07:18.818Z,31.20
2018-02-08T19:09:46.342Z,30.10
2018-02-08T19:12:13.832Z,33.03
2018-02-08T19:14:41.362Z,30.37
2018-02-08T19:17:09.111Z,30.83
2018-02-08T19:19:36.965Z,31.50
2018-02-08T19:22:05.291Z,30.73
2018-02-08T19:24:32.761Z,32.47
2018-02-08T19:27:00.468Z,30.50
2018-02-08T19:29:28.324Z,32.70
2018-02-08T19:31:55.816Z,31.70
2018-02-08T19:34:23.382Z,31.20
2018-02-08T19:36:50.826Z,32.17
2018-02-08T19:39:18.859Z,32.17
2018-02-08T19:41:46.391Z,31.47
2018-02-08T19:44:14.088Z,32.43
2018-02-08T19:46:41.657Z,35.20
2018-02-08T19:49:09.899Z,34.13
2018-02-08T19:51:37.393Z,34.60
2018-02-08T19:54:05.672Z,33.50
2018-02-08T19:56:33.983Z,33.57
2018-02-08T19:59:01.455Z,33.37
2018-02-08T20:01:29.624Z,35.30
2018-02-08T20:03:57.075Z,34.17
2018-02-08T20:06:24.644Z,35.63
2018-02-08T20:08:52.263Z,34.03
2018-02-08T20:11:20.530Z,33.90
2018-02-08T20:13:47.983Z,34.60
2018-02-08T20:16:16.219Z,34.30
2018-02-08T20:18:43.971Z,36.13
2018-02-08T20:21:11.424Z,35.70
2018-02-08T20:23:39.641Z,35.93
2018-02-08T20:26:07.120Z,35.57
2018-02-08T20:28:34.732Z,37.03
2018-02-08T20:31:07.870Z,35.83
2018-02-08T20:33:36.130Z,37.27
2018-02-08T20:36:03.636Z,37.07
2018-02-08T20:38:31.861Z,38.73
2018-02-08T20:40:59.549Z,37.93
2018-02-08T20:43:28.843Z,37.37
2018-02-08T20:45:56.306Z,38.00
2018-02-08T20:48:23.829Z,38.80
2018-02-08T20:50:51.552Z,37.97
2018-02-08T20:53:19.819Z,46.30
2018-02-08T20:55:47.694Z,45.23
2018-02-08T20:58:15.690Z,41.03
2018-02-08T21:00:43.229Z,46.80
2018-02-08T21:03:11.543Z,39.97
2018-02-08T21:05:39.069Z,37.77
2018-02-08T21:08:07.491Z,38.93
2018-02-08T21:10:34.950Z,37.33
2018-02-08T21:13:02.439Z,38.63
2018-02-08T21:15:31.419Z,38.30
2018-02-08T21:17:58.887Z,39.10
2018-02-08T21:20:26.351Z,39.10
2018-02-08T21:22:54.636Z,39.90
2018-02-08T21:25:22.953Z,39.70
2018-02-08T21:27:50.428Z,39.93
2018-02-08T21:30:18.232Z,39.23
2018-02-08T21:32:47.224Z,39.60
2018-02-08T21:35:15.470Z,36.47
2018-02-08T21:37:43.480Z,38.10
2018-02-08T21:40:10.937Z,41.07
2018-02-08T21:42:39.204Z,40.23
2018-02-08T21:45:06.660Z,39.17
2018-02-08T21:47:34.234Z,40.10
2018-02-08T21:50:02.474Z,39.70
2018-02-08T21:52:29.961Z,39.07
2018-02-08T21:54:58.229Z,39.70
2018-02-08T21:57:25.690Z,38.60
2018-02-08T21:59:53.149Z,40.03
2018-02-08T22:02:20.862Z,40.43
2018-02-08T22:04:48.333Z,40.10
2018-02-08T22:07:15.894Z,38.40
2018-02-08T22:09:43.439Z,39.87
2018-02-08T22:12:10.926Z,38.83
2018-02-08T22:14:38.418Z,39.00
2018-02-08T22:17:05.927Z,40.00
2018-02-08T22:19:33.391Z,38.10
2018-02-08T22:22:01.321Z,40.03
2018-02-08T22:24:28.836Z,39.33
2018-02-08T22:26:56.317Z,39.20
2018-02-08T22:29:24.491Z,38.53
2018-02-08T22:31:52.051Z,38.20
2018-02-08T22:34:19.652Z,40.03
2018-02-08T22:36:47.148Z,38.87
2018-02-08T22:39:14.623Z,38.20
2018-02-08T22:41:42.321Z,39.33
2018-02-08T22:44:10.539Z,37.57
2018-02-08T22:46:38.192Z,37.73
2018-02-08T22:49:05.723Z,39.07
2018-02-08T22:51:33.195Z,41.20
2018-02-08T22:54:00.779Z,38.53
2018-02-08T22:56:28.257Z,42.10
2018-02-08T22:58:55.819Z,41.67
2018-02-08T23:01:23.383Z,44.97
2018-02-08T23:03:50.862Z,41.43
2018-02-08T23:06:19.121Z,42.10
2018-02-08T23:08:47.070Z,40.10
2018-02-08T23:11:14.653Z,38.50
2018-02-08T23:13:42.898Z,39.37
2018-02-08T23:16:10.391Z,43.37
2018-02-08T23:18:37.855Z,38.00
2018-02-08T23:21:05.332Z,40.73
2018-02-08T23:23:33.551Z,39.80
2018-02-08T23:26:01.032Z,38.97
2018-02-08T23:28:28.519Z,38.60
2018-02-08T23:30:56.779Z,41.37
2018-02-08T23:33:24.237Z,38.60
2018-02-08T23:35:51.703Z,35.50
2018-02-08T23:38:19.933Z,36.10
2018-02-08T23:40:47.425Z,36.77
2018-02-08T23:43:14.953Z,35.80
2018-02-08T23:45:42.419Z,33.70
2018-02-08T23:48:09.873Z,34.40
2018-02-08T23:50:37.374Z,34.50
2018-02-08T23:53:05.659Z,33.57
2018-02-08T23:55:33.883Z,32.73
2018-02-08T23:58:01.383Z,33.90
